sensor_id;sensor_type;location;lat;lon;timestamp;P1;durP1;ratioP1;P2;durP2;ratioP2
24439;SDS011;12618;54.386;18.394;2024-03-22T00:01:29;48.10;;;23.70;;
24439;SDS011;12618;54.386;18.394;2024-03-22T00:04:01;47.50;;;23.50;;
24439;SDS011;12618;54.386;18.394;2024-03-22T00:06:32;46.60;;;22.30;;
24439;SDS011;12618;54.386;18.394;2024-03-22T00:09:04;46.60;;;22.60;;
24439;SDS011;12618;54.386;18.394;2024-03-22T00:11:36;46.70;;;23.20;;
24439;SDS011;12618;54.386;18.394;2024-03-22T00:14:11;48.30;;;23.70;;
24439;SDS011;12618;54.386;18.394;2024-03-22T00:16:42;49.90;;;24.10;;
24439;SDS011;12618;54.386;18.394;2024-03-22T00:19:14;53.60;;;24.70;;
24439;SDS011;12618;54.386;18.394;2024-03-22T00:21:46;56.40;;;25.10;;
24439;SDS011;12618;54.386;18.394;2024-03-22T00:24:17;54.30;;;25.20;;
24439;SDS011;12618;54.386;18.394;2024-03-22T00:26:49;52.60;;;24.70;;
24439;SDS011;12618;54.386;18.394;2024-03-22T00:29:20;48.30;;;23.90;;
24439;SDS011;12618;54.386;18.394;2024-03-22T00:31:52;49.30;;;23.30;;
24439;SDS011;12618;54.386;18.394;2024-03-22T00:34:23;51.00;;;24.70;;
24439;SDS011;12618;54.386;18.394;2024-03-22T00:36:55;50.50;;;24.00;;
24439;SDS011;12618;54.386;18.394;2024-03-22T00:39:27;45.00;;;22.70;;
24439;SDS011;12618;54.386;18.394;2024-03-22T00:41:58;49.80;;;24.10;;
24439;SDS011;12618;54.386;18.394;2024-03-22T00:44:30;47.70;;;23.90;;
24439;SDS011;12618;54.386;18.394;2024-03-22T00:47:01;49.70;;;23.60;;
24439;SDS011;12618;54.386;18.394;2024-03-22T00:49:34;46.60;;;22.90;;
24439;SDS011;12618;54.386;18.394;2024-03-22T00:52:06;47.70;;;23.00;;
24439;SDS011;12618;54.386;18.394;2024-03-22T00:54:37;48.10;;;21.80;;
24439;SDS011;12618;54.386;18.394;2024-03-22T00:57:10;51.70;;;23.20;;
24439;SDS011;12618;54.386;18.394;2024-03-22T00:59:42;48.20;;;21.60;;
24439;SDS011;12618;54.386;18.394;2024-03-22T01:02:13;49.90;;;21.80;;
24439;SDS011;12618;54.386;18.394;2024-03-22T01:04:45;45.00;;;21.20;;
24439;SDS011;12618;54.386;18.394;2024-03-22T01:07:16;49.20;;;21.90;;
24439;SDS011;12618;54.386;18.394;2024-03-22T01:09:48;49.30;;;22.40;;
24439;SDS011;12618;54.386;18.394;2024-03-22T01:12:20;42.00;;;20.10;;
24439;SDS011;12618;54.386;18.394;2024-03-22T01:14:51;47.10;;;20.60;;
24439;SDS011;12618;54.386;18.394;2024-03-22T01:17:23;47.90;;;21.50;;
24439;SDS011;12618;54.386;18.394;2024-03-22T01:19:55;46.30;;;20.80;;
24439;SDS011;12618;54.386;18.394;2024-03-22T01:22:26;45.20;;;20.90;;
24439;SDS011;12618;54.386;18.394;2024-03-22T01:24:58;44.20;;;19.80;;
24439;SDS011;12618;54.386;18.394;2024-03-22T01:27:30;46.00;;;20.60;;
24439;SDS011;12618;54.386;18.394;2024-03-22T01:30:02;47.30;;;20.70;;
24439;SDS011;12618;54.386;18.394;2024-03-22T01:32:34;47.90;;;21.70;;
24439;SDS011;12618;54.386;18.394;2024-03-22T01:35:07;48.90;;;21.40;;
24439;SDS011;12618;54.386;18.394;2024-03-22T01:37:39;52.90;;;22.00;;
24439;SDS011;12618;54.386;18.394;2024-03-22T01:40:12;47.20;;;21.80;;
24439;SDS011;12618;54.386;18.394;2024-03-22T01:42:44;47.60;;;21.50;;
24439;SDS011;12618;54.386;18.394;2024-03-22T01:45:16;48.50;;;22.10;;
24439;SDS011;12618;54.386;18.394;2024-03-22T01:47:47;45.20;;;20.70;;
24439;SDS011;12618;54.386;18.394;2024-03-22T01:50:19;48.10;;;20.70;;
24439;SDS011;12618;54.386;18.394;2024-03-22T01:52:52;46.50;;;20.40;;
24439;SDS011;12618;54.386;18.394;2024-03-22T01:55:23;41.60;;;19.80;;
24439;SDS011;12618;54.386;18.394;2024-03-22T01:57:55;46.90;;;21.10;;
24439;SDS011;12618;54.386;18.394;2024-03-22T02:00:27;48.90;;;20.70;;
24439;SDS011;12618;54.386;18.394;2024-03-22T02:02:58;43.20;;;20.30;;
24439;SDS011;12618;54.386;18.394;2024-03-22T02:05:30;45.90;;;20.60;;
24439;SDS011;12618;54.386;18.394;2024-03-22T02:08:01;40.70;;;19.30;;
24439;SDS011;12618;54.386;18.394;2024-03-22T02:10:33;44.00;;;20.60;;
24439;SDS011;12618;54.386;18.394;2024-03-22T02:13:05;41.60;;;20.00;;
24439;SDS011;12618;54.386;18.394;2024-03-22T02:15:36;47.30;;;22.00;;
24439;SDS011;12618;54.386;18.394;2024-03-22T02:18:08;47.80;;;22.20;;
24439;SDS011;12618;54.386;18.394;2024-03-22T02:20:40;46.20;;;21.50;;
24439;SDS011;12618;54.386;18.394;2024-03-22T02:23:12;44.60;;;20.00;;
24439;SDS011;12618;54.386;18.394;2024-03-22T02:25:44;43.50;;;20.80;;
24439;SDS011;12618;54.386;18.394;2024-03-22T02:28:15;45.10;;;21.90;;
24439;SDS011;12618;54.386;18.394;2024-03-22T02:30:47;43.80;;;21.10;;
24439;SDS011;12618;54.386;18.394;2024-03-22T02:33:18;42.90;;;21.40;;
24439;SDS011;12618;54.386;18.394;2024-03-22T02:35:50;39.80;;;19.70;;
24439;SDS011;12618;54.386;18.394;2024-03-22T02:38:22;43.20;;;20.10;;
24439;SDS011;12618;54.386;18.394;2024-03-22T02:40:54;42.20;;;19.60;;
24439;SDS011;12618;54.386;18.394;2024-03-22T02:43:25;48.00;;;21.90;;
24439;SDS011;12618;54.386;18.394;2024-03-22T02:45:57;45.90;;;21.00;;
24439;SDS011;12618;54.386;18.394;2024-03-22T02:48:28;44.80;;;21.10;;
24439;SDS011;12618;54.386;18.394;2024-03-22T02:51:00;43.50;;;21.30;;
24439;SDS011;12618;54.386;18.394;2024-03-22T02:53:31;44.70;;;20.80;;
24439;SDS011;12618;54.386;18.394;2024-03-22T02:56:03;42.50;;;21.10;;
24439;SDS011;12618;54.386;18.394;2024-03-22T02:58:35;45.40;;;21.10;;
24439;SDS011;12618;54.386;18.394;2024-03-22T03:01:07;46.00;;;22.00;;
24439;SDS011;12618;54.386;18.394;2024-03-22T03:03:39;47.60;;;22.60;;
24439;SDS011;12618;54.386;18.394;2024-03-22T03:06:11;52.10;;;24.00;;
24439;SDS011;12618;54.386;18.394;2024-03-22T03:08:44;50.30;;;23.50;;
24439;SDS011;12618;54.386;18.394;2024-03-22T03:11:16;52.30;;;23.20;;
24439;SDS011;12618;54.386;18.394;2024-03-22T03:13:47;45.20;;;22.10;;
24439;SDS011;12618;54.386;18.394;2024-03-22T03:16:19;46.50;;;22.40;;
24439;SDS011;12618;54.386;18.394;2024-03-22T03:18:50;48.50;;;22.50;;
24439;SDS011;12618;54.386;18.394;2024-03-22T03:21:22;45.20;;;21.30;;
24439;SDS011;12618;54.386;18.394;2024-03-22T03:23:53;45.80;;;21.80;;
24439;SDS011;12618;54.386;18.394;2024-03-22T03:26:25;48.40;;;22.40;;
24439;SDS011;12618;54.386;18.394;2024-03-22T03:28:57;47.40;;;22.10;;
24439;SDS011;12618;54.386;18.394;2024-03-22T03:31:29;49.60;;;22.70;;
24439;SDS011;12618;54.386;18.394;2024-03-22T03:34:00;47.10;;;22.20;;
24439;SDS011;12618;54.386;18.394;2024-03-22T03:36:32;44.60;;;22.10;;
24439;SDS011;12618;54.386;18.394;2024-03-22T03:39:03;50.90;;;22.70;;
24439;SDS011;12618;54.386;18.394;2024-03-22T03:41:35;50.50;;;24.10;;
24439;SDS011;12618;54.386;18.394;2024-03-22T03:44:07;48.70;;;23.20;;
24439;SDS011;12618;54.386;18.394;2024-03-22T03:46:38;49.40;;;23.00;;
24439;SDS011;12618;54.386;18.394;2024-03-22T03:49:10;53.00;;;23.20;;
24439;SDS011;12618;54.386;18.394;2024-03-22T03:51:41;47.90;;;22.60;;
24439;SDS011;12618;54.386;18.394;2024-03-22T03:54:13;49.70;;;24.10;;
24439;SDS011;12618;54.386;18.394;2024-03-22T03:56:44;49.30;;;22.90;;
24439;SDS011;12618;54.386;18.394;2024-03-22T03:59:16;47.70;;;22.00;;
24439;SDS011;12618;54.386;18.394;2024-03-22T04:01:48;45.10;;;22.00;;
24439;SDS011;12618;54.386;18.394;2024-03-22T04:04:20;44.80;;;21.70;;
24439;SDS011;12618;54.386;18.394;2024-03-22T04:06:51;46.10;;;22.40;;
24439;SDS011;12618;54.386;18.394;2024-03-22T04:09:23;50.80;;;23.60;;
24439;SDS011;12618;54.386;18.394;2024-03-22T04:11:55;49.50;;;22.30;;
24439;SDS011;12618;54.386;18.394;2024-03-22T04:14:29;45.10;;;22.10;;
24439;SDS011;12618;54.386;18.394;2024-03-22T04:17:01;50.30;;;23.90;;
24439;SDS011;12618;54.386;18.394;2024-03-22T04:19:33;47.90;;;23.80;;
24439;SDS011;12618;54.386;18.394;2024-03-22T04:22:04;51.20;;;24.80;;
24439;SDS011;12618;54.386;18.394;2024-03-22T04:24:36;47.20;;;23.30;;
24439;SDS011;12618;54.386;18.394;2024-03-22T04:27:07;48.30;;;24.00;;
24439;SDS011;12618;54.386;18.394;2024-03-22T04:29:39;48.30;;;23.80;;
24439;SDS011;12618;54.386;18.394;2024-03-22T04:32:10;51.40;;;25.50;;
24439;SDS011;12618;54.386;18.394;2024-03-22T04:34:42;49.90;;;24.50;;
24439;SDS011;12618;54.386;18.394;2024-03-22T04:37:14;50.00;;;23.60;;
24439;SDS011;12618;54.386;18.394;2024-03-22T04:39:45;50.00;;;24.80;;
24439;SDS011;12618;54.386;18.394;2024-03-22T04:42:19;50.50;;;23.60;;
24439;SDS011;12618;54.386;18.394;2024-03-22T04:44:51;47.40;;;23.70;;
24439;SDS011;12618;54.386;18.394;2024-03-22T04:47:22;47.00;;;21.70;;
24439;SDS011;12618;54.386;18.394;2024-03-22T04:52:46;47.70;;;22.20;;
24439;SDS011;12618;54.386;18.394;2024-03-22T04:55:17;45.80;;;22.50;;
24439;SDS011;12618;54.386;18.394;2024-03-22T04:57:49;45.50;;;21.70;;
24439;SDS011;12618;54.386;18.394;2024-03-22T05:00:21;43.10;;;20.80;;
24439;SDS011;12618;54.386;18.394;2024-03-22T05:02:52;48.40;;;22.40;;
24439;SDS011;12618;54.386;18.394;2024-03-22T05:05:24;47.80;;;22.80;;
24439;SDS011;12618;54.386;18.394;2024-03-22T05:07:55;45.20;;;21.20;;
24439;SDS011;12618;54.386;18.394;2024-03-22T05:10:27;49.50;;;21.50;;
24439;SDS011;12618;54.386;18.394;2024-03-22T05:13:00;45.80;;;20.90;;
24439;SDS011;12618;54.386;18.394;2024-03-22T05:15:31;43.50;;;21.30;;
24439;SDS011;12618;54.386;18.394;2024-03-22T05:18:03;48.00;;;23.40;;
24439;SDS011;12618;54.386;18.394;2024-03-22T05:20:35;46.50;;;22.10;;
24439;SDS011;12618;54.386;18.394;2024-03-22T05:23:07;50.30;;;22.50;;
24439;SDS011;12618;54.386;18.394;2024-03-22T05:25:38;45.10;;;22.00;;
24439;SDS011;12618;54.386;18.394;2024-03-22T05:28:10;47.60;;;23.10;;
24439;SDS011;12618;54.386;18.394;2024-03-22T05:30:42;46.40;;;22.70;;
24439;SDS011;12618;54.386;18.394;2024-03-22T05:33:14;48.20;;;23.30;;
24439;SDS011;12618;54.386;18.394;2024-03-22T05:35:46;54.10;;;24.40;;
24439;SDS011;12618;54.386;18.394;2024-03-22T05:38:17;52.20;;;23.90;;
24439;SDS011;12618;54.386;18.394;2024-03-22T05:40:49;50.00;;;23.60;;
24439;SDS011;12618;54.386;18.394;2024-03-22T05:43:21;51.40;;;23.20;;
24439;SDS011;12618;54.386;18.394;2024-03-22T05:45:53;47.70;;;22.90;;
24439;SDS011;12618;54.386;18.394;2024-03-22T05:48:24;51.10;;;23.40;;
24439;SDS011;12618;54.386;18.394;2024-03-22T05:50:57;50.20;;;23.30;;
24439;SDS011;12618;54.386;18.394;2024-03-22T05:53:28;48.80;;;21.80;;
24439;SDS011;12618;54.386;18.394;2024-03-22T05:56:00;49.60;;;22.80;;
24439;SDS011;12618;54.386;18.394;2024-03-22T05:58:31;44.40;;;22.80;;
24439;SDS011;12618;54.386;18.394;2024-03-22T06:01:03;45.40;;;21.10;;
24439;SDS011;12618;54.386;18.394;2024-03-22T06:03:34;48.50;;;21.10;;
24439;SDS011;12618;54.386;18.394;2024-03-22T06:06:06;41.60;;;20.20;;
24439;SDS011;12618;54.386;18.394;2024-03-22T06:08:37;42.10;;;20.90;;
24439;SDS011;12618;54.386;18.394;2024-03-22T06:11:10;39.10;;;19.20;;
24439;SDS011;12618;54.386;18.394;2024-03-22T06:13:46;39.50;;;18.40;;
24439;SDS011;12618;54.386;18.394;2024-03-22T06:16:18;39.60;;;19.20;;
24439;SDS011;12618;54.386;18.394;2024-03-22T06:18:52;39.60;;;19.30;;
24439;SDS011;12618;54.386;18.394;2024-03-22T06:21:24;43.60;;;20.40;;
24439;SDS011;12618;54.386;18.394;2024-03-22T06:23:57;47.70;;;20.40;;
24439;SDS011;12618;54.386;18.394;2024-03-22T06:26:28;48.60;;;19.60;;
24439;SDS011;12618;54.386;18.394;2024-03-22T06:29:11;41.90;;;19.70;;
24439;SDS011;12618;54.386;18.394;2024-03-22T06:31:43;38.40;;;19.00;;
24439;SDS011;12618;54.386;18.394;2024-03-22T06:34:15;37.70;;;18.00;;
24439;SDS011;12618;54.386;18.394;2024-03-22T06:36:47;40.30;;;18.50;;
24439;SDS011;12618;54.386;18.394;2024-03-22T06:39:20;40.40;;;19.00;;
24439;SDS011;12618;54.386;18.394;2024-03-22T06:41:51;41.10;;;19.40;;
24439;SDS011;12618;54.386;18.394;2024-03-22T06:44:23;38.80;;;18.30;;
24439;SDS011;12618;54.386;18.394;2024-03-22T06:46:54;36.90;;;18.90;;
24439;SDS011;12618;54.386;18.394;2024-03-22T06:49:26;38.50;;;19.20;;
24439;SDS011;12618;54.386;18.394;2024-03-22T06:51:57;44.30;;;19.90;;
24439;SDS011;12618;54.386;18.394;2024-03-22T06:54:30;38.80;;;17.80;;
24439;SDS011;12618;54.386;18.394;2024-03-22T06:57:02;39.60;;;18.50;;
24439;SDS011;12618;54.386;18.394;2024-03-22T06:59:33;37.20;;;19.20;;
24439;SDS011;12618;54.386;18.394;2024-03-22T07:02:05;38.70;;;19.10;;
24439;SDS011;12618;54.386;18.394;2024-03-22T07:04:37;40.20;;;18.80;;
24439;SDS011;12618;54.386;18.394;2024-03-22T07:07:09;45.30;;;20.80;;
24439;SDS011;12618;54.386;18.394;2024-03-22T07:09:40;42.00;;;20.50;;
24439;SDS011;12618;54.386;18.394;2024-03-22T07:15:44;38.30;;;20.20;;
24439;SDS011;12618;54.386;18.394;2024-03-22T07:18:49;41.90;;;21.20;;
24439;SDS011;12618;54.386;18.394;2024-03-22T07:22:09;40.80;;;20.00;;
24439;SDS011;12618;54.386;18.394;2024-03-22T07:25:42;39.10;;;19.70;;
24439;SDS011;12618;54.386;18.394;2024-03-22T07:29:12;35.60;;;18.70;;
24439;SDS011;12618;54.386;18.394;2024-03-22T07:32:14;37.00;;;18.80;;
24439;SDS011;12618;54.386;18.394;2024-03-22T07:35:46;38.60;;;18.90;;
24439;SDS011;12618;54.386;18.394;2024-03-22T07:39:00;34.90;;;19.30;;
24439;SDS011;12618;54.386;18.394;2024-03-22T07:41:52;31.60;;;17.60;;
24439;SDS011;12618;54.386;18.394;2024-03-22T07:44:33;33.00;;;18.00;;
24439;SDS011;12618;54.386;18.394;2024-03-22T07:48:04;29.30;;;17.40;;
24439;SDS011;12618;54.386;18.394;2024-03-22T07:54:46;31.30;;;16.70;;
24439;SDS011;12618;54.386;18.394;2024-03-22T07:57:55;26.40;;;15.70;;
24439;SDS011;12618;54.386;18.394;2024-03-22T08:00:28;26.30;;;15.40;;
24439;SDS011;12618;54.386;18.394;2024-03-22T08:03:00;25.50;;;15.00;;
24439;SDS011;12618;54.386;18.394;2024-03-22T08:05:31;27.20;;;15.50;;
24439;SDS011;12618;54.386;18.394;2024-03-22T08:08:03;24.60;;;14.70;;
24439;SDS011;12618;54.386;18.394;2024-03-22T08:10:35;26.70;;;15.80;;
24439;SDS011;12618;54.386;18.394;2024-03-22T08:13:07;24.20;;;15.60;;
24439;SDS011;12618;54.386;18.394;2024-03-22T08:15:38;25.30;;;14.70;;
24439;SDS011;12618;54.386;18.394;2024-03-22T08:18:10;26.90;;;16.00;;
24439;SDS011;12618;54.386;18.394;2024-03-22T08:20:42;26.20;;;16.10;;
24439;SDS011;12618;54.386;18.394;2024-03-22T08:23:14;25.50;;;16.20;;
24439;SDS011;12618;54.386;18.394;2024-03-22T08:25:45;28.40;;;17.10;;
24439;SDS011;12618;54.386;18.394;2024-03-22T08:28:17;28.10;;;17.00;;
24439;SDS011;12618;54.386;18.394;2024-03-22T08:31:05;28.40;;;17.10;;
24439;SDS011;12618;54.386;18.394;2024-03-22T08:33:37;29.80;;;18.00;;
24439;SDS011;12618;54.386;18.394;2024-03-22T08:36:08;30.40;;;17.30;;
24439;SDS011;12618;54.386;18.394;2024-03-22T08:38:40;28.90;;;17.40;;
24439;SDS011;12618;54.386;18.394;2024-03-22T08:41:12;28.30;;;17.60;;
24439;SDS011;12618;54.386;18.394;2024-03-22T08:43:43;27.50;;;18.10;;
24439;SDS011;12618;54.386;18.394;2024-03-22T08:46:16;28.70;;;18.60;;
24439;SDS011;12618;54.386;18.394;2024-03-22T08:48:48;26.60;;;17.40;;
24439;SDS011;12618;54.386;18.394;2024-03-22T08:51:20;29.10;;;18.80;;
24439;SDS011;12618;54.386;18.394;2024-03-22T08:53:54;24.80;;;17.40;;
24439;SDS011;12618;54.386;18.394;2024-03-22T08:56:26;27.50;;;19.10;;
24439;SDS011;12618;54.386;18.394;2024-03-22T08:58:59;25.80;;;18.10;;
24439;SDS011;12618;54.386;18.394;2024-03-22T09:01:31;29.10;;;18.80;;
24439;SDS011;12618;54.386;18.394;2024-03-22T09:04:03;27.80;;;19.10;;
24439;SDS011;12618;54.386;18.394;2024-03-22T09:06:35;29.90;;;20.30;;
24439;SDS011;12618;54.386;18.394;2024-03-22T09:09:07;27.00;;;18.90;;
24439;SDS011;12618;54.386;18.394;2024-03-22T09:11:40;29.40;;;19.20;;
24439;SDS011;12618;54.386;18.394;2024-03-22T09:14:11;28.70;;;18.40;;
24439;SDS011;12618;54.386;18.394;2024-03-22T09:16:43;28.60;;;19.70;;
24439;SDS011;12618;54.386;18.394;2024-03-22T09:19:15;29.50;;;19.20;;
24439;SDS011;12618;54.386;18.394;2024-03-22T09:21:47;30.80;;;20.60;;
24439;SDS011;12618;54.386;18.394;2024-03-22T09:24:18;28.80;;;19.10;;
24439;SDS011;12618;54.386;18.394;2024-03-22T09:26:50;28.40;;;19.80;;
24439;SDS011;12618;54.386;18.394;2024-03-22T09:29:22;31.40;;;20.90;;
24439;SDS011;12618;54.386;18.394;2024-03-22T09:31:54;31.90;;;20.90;;
24439;SDS011;12618;54.386;18.394;2024-03-22T09:34:25;31.20;;;21.40;;
24439;SDS011;12618;54.386;18.394;2024-03-22T09:36:57;32.00;;;21.30;;
24439;SDS011;12618;54.386;18.394;2024-03-22T09:39:29;33.70;;;23.30;;
24439;SDS011;12618;54.386;18.394;2024-03-22T09:42:01;36.50;;;24.20;;
24439;SDS011;12618;54.386;18.394;2024-03-22T09:44:37;33.00;;;22.00;;
24439;SDS011;12618;54.386;18.394;2024-03-22T09:47:11;32.10;;;22.30;;
24439;SDS011;12618;54.386;18.394;2024-03-22T09:49:47;34.30;;;22.50;;
24439;SDS011;12618;54.386;18.394;2024-03-22T09:52:20;33.90;;;21.20;;
24439;SDS011;12618;54.386;18.394;2024-03-22T09:54:53;33.60;;;22.70;;
24439;SDS011;12618;54.386;18.394;2024-03-22T09:57:25;36.00;;;22.90;;
24439;SDS011;12618;54.386;18.394;2024-03-22T09:59:57;31.70;;;21.40;;
24439;SDS011;12618;54.386;18.394;2024-03-22T10:02:30;32.70;;;21.40;;
24439;SDS011;12618;54.386;18.394;2024-03-22T10:05:02;33.20;;;21.70;;
24439;SDS011;12618;54.386;18.394;2024-03-22T10:07:34;36.00;;;22.10;;
24439;SDS011;12618;54.386;18.394;2024-03-22T10:10:07;36.00;;;22.20;;
24439;SDS011;12618;54.386;18.394;2024-03-22T10:12:41;35.80;;;22.20;;
24439;SDS011;12618;54.386;18.394;2024-03-22T10:15:13;38.70;;;23.30;;
24439;SDS011;12618;54.386;18.394;2024-03-22T10:18:02;40.00;;;23.40;;
24439;SDS011;12618;54.386;18.394;2024-03-22T10:20:35;35.10;;;22.60;;
24439;SDS011;12618;54.386;18.394;2024-03-22T10:23:07;36.10;;;22.60;;
24439;SDS011;12618;54.386;18.394;2024-03-22T10:25:39;37.80;;;22.90;;
24439;SDS011;12618;54.386;18.394;2024-03-22T10:28:11;36.20;;;22.40;;
24439;SDS011;12618;54.386;18.394;2024-03-22T10:30:45;37.00;;;21.20;;
24439;SDS011;12618;54.386;18.394;2024-03-22T10:33:20;39.30;;;23.20;;
24439;SDS011;12618;54.386;18.394;2024-03-22T10:35:55;38.00;;;23.90;;
24439;SDS011;12618;54.386;18.394;2024-03-22T10:38:27;38.20;;;23.30;;
24439;SDS011;12618;54.386;18.394;2024-03-22T10:41:01;39.90;;;23.90;;
24439;SDS011;12618;54.386;18.394;2024-03-22T10:43:34;37.90;;;23.00;;
24439;SDS011;12618;54.386;18.394;2024-03-22T10:46:06;36.30;;;22.60;;
24439;SDS011;12618;54.386;18.394;2024-03-22T10:48:40;40.70;;;23.40;;
24439;SDS011;12618;54.386;18.394;2024-03-22T10:51:14;39.00;;;23.30;;
24439;SDS011;12618;54.386;18.394;2024-03-22T10:53:47;39.30;;;23.50;;
24439;SDS011;12618;54.386;18.394;2024-03-22T10:56:21;36.70;;;22.90;;
24439;SDS011;12618;54.386;18.394;2024-03-22T10:58:54;37.60;;;23.50;;
24439;SDS011;12618;54.386;18.394;2024-03-22T11:01:26;38.40;;;23.20;;
24439;SDS011;12618;54.386;18.394;2024-03-22T11:04:07;40.80;;;24.00;;
24439;SDS011;12618;54.386;18.394;2024-03-22T11:06:41;42.70;;;24.00;;
24439;SDS011;12618;54.386;18.394;2024-03-22T11:09:22;41.60;;;23.10;;
24439;SDS011;12618;54.386;18.394;2024-03-22T11:11:55;38.70;;;22.50;;
24439;SDS011;12618;54.386;18.394;2024-03-22T11:14:31;39.50;;;23.00;;
24439;SDS011;12618;54.386;18.394;2024-03-22T11:17:03;39.10;;;23.60;;
24439;SDS011;12618;54.386;18.394;2024-03-22T11:29:14;38.80;;;23.00;;
24439;SDS011;12618;54.386;18.394;2024-03-22T11:31:45;35.70;;;22.50;;
24439;SDS011;12618;54.386;18.394;2024-03-22T11:34:17;39.60;;;24.10;;
24439;SDS011;12618;54.386;18.394;2024-03-22T11:36:48;38.30;;;23.00;;
24439;SDS011;12618;54.386;18.394;2024-03-22T11:39:21;38.00;;;23.50;;
24439;SDS011;12618;54.386;18.394;2024-03-22T11:41:53;35.40;;;21.70;;
24439;SDS011;12618;54.386;18.394;2024-03-22T11:44:25;37.90;;;22.10;;
24439;SDS011;12618;54.386;18.394;2024-03-22T11:46:57;36.10;;;22.50;;
24439;SDS011;12618;54.386;18.394;2024-03-22T11:49:28;37.80;;;21.80;;
24439;SDS011;12618;54.386;18.394;2024-03-22T11:52:00;33.20;;;21.10;;
24439;SDS011;12618;54.386;18.394;2024-03-22T11:54:32;33.70;;;20.50;;
24439;SDS011;12618;54.386;18.394;2024-03-22T11:57:04;36.70;;;22.60;;
24439;SDS011;12618;54.386;18.394;2024-03-22T11:59:35;33.70;;;20.80;;
24439;SDS011;12618;54.386;18.394;2024-03-22T12:02:07;34.10;;;21.40;;
24439;SDS011;12618;54.386;18.394;2024-03-22T12:04:42;34.80;;;21.70;;
24439;SDS011;12618;54.386;18.394;2024-03-22T12:07:15;32.20;;;20.00;;
24439;SDS011;12618;54.386;18.394;2024-03-22T12:09:48;31.50;;;20.30;;
24439;SDS011;12618;54.386;18.394;2024-03-22T12:12:21;33.20;;;20.60;;
24439;SDS011;12618;54.386;18.394;2024-03-22T12:14:56;34.20;;;21.20;;
